Flight Track Log - Related Links

Times and Time Zones

All times are in EDT time to prevent confusion due to time zone crossing. See the EJA312 flight status page for this flight to view local times or setup timezone preferences in your user account.

Time Position Orientation Groundspeed Altitude Reporting Facility
EDT Latitude Longitude Course Direction KTS MPH feet Rate Location/Type
12:00PM 29.6381 -95.2719 39° Northeast 140 161 800  Level Houston Center
12:02PM 29.6733 -95.2386 39° Northeast 217 250 3,500 2,930 Climbing Houston Center
12:02PM 29.6908 -95.2536 323° Northwest 253 291 5,000 3,677 Climbing Houston Center
12:03PM 29.7311 -95.2808 330° Northwest 243 280 7,300 3,246 Climbing Houston Center
12:03PM 29.7494 -95.2969 323° Northwest 251 289 8,300 2,806 Climbing Houston Center
12:04PM 29.7939 -95.3247 332° Northwest 261 300 10,200 3,000 Climbing Houston Center
12:04PM 29.8111 -95.3256 358° North 273 314 11,100 3,290 Climbing Houston Center
12:05PM 29.8678 -95.3061 17° North 276 318 13,600 2,593 Climbing Houston Center
12:06PM 29.9533 -95.2592 25° Northeast 283 326 16,200 1,694 Climbing Houston Center
12:07PM 30.0381 -95.2114 26° Northeast 332 382 17,100 672 Climbing Houston Center
12:08PM 30.1275 -95.1614 26° Northeast 352 405 17,600 816 Climbing Houston Center
12:09PM 30.2147 -95.1125 26° Northeast 348 400 18,800 1,161 Climbing Houston Center
12:10PM 30.3064 -95.0614 26° Northeast 363 418 20,000 919 Climbing Houston Center
12:11PM 30.4031 -95.0072 26° Northeast 382 440 20,700 1,452 Climbing Houston Center
12:12PM 30.4906 -94.9397 34° Northeast 362 417 23,000 2,226 Climbing Houston Center
12:13PM 30.5906 -94.8633 33° Northeast 359 413 25,300 1,452 Climbing Houston Center
12:14PM 30.6761 -94.7986 33° Northeast 366 421 26,000 435 Climbing Houston Center
12:15PM 30.7725 -94.7242 34° Northeast 414 476 26,200 528 Climbing Houston Center
12:16PM 30.8686 -94.6492 34° Northeast 417 480 27,100 864 Climbing Houston Center
12:17PM 30.9650 -94.5747 34° Northeast 419 482 28,000 435 Climbing Houston Center
12:18PM 31.0861 -94.4797 34° Northeast 439 505 28,000 48 Level Houston Center
12:19PM 31.1894 -94.3997 34° Northeast 448 516 28,100 774 Climbing Houston Center
12:20PM 31.2908 -94.3206 34° Northeast 446 513 29,600 1,403 Climbing Houston Center
12:21PM 31.3911 -94.2425 34° Northeast 439 505 31,000 1,016 Climbing Houston Center
12:22PM 31.4925 -94.1631 34° Northeast 438 504 31,700 1,210 Climbing Houston Center
12:23PM 31.6153 -94.0669 34° Northeast 443 510 33,500 1,597 Climbing Houston Center
12:24PM 31.7139 -93.9883 34° Northeast 433 498 35,000 1,488 Climbing Houston Center
12:26PM 31.8064 -93.9147 34° Northeast 422 486 36,600 1,776 Climbing Houston Center
12:27PM 31.8986 -93.8414 34° Northeast 406 467 38,700 1,161 Climbing Houston Center
12:28PM 31.9864 -93.7722 34° Northeast 389 448 39,000 677 Climbing Houston Center
12:29PM 32.1058 -93.6775 34° Northeast 412 474 40,100 968 Climbing Houston Center
12:30PM 32.1961 -93.6033 35° Northeast 409 471 41,000 370 Climbing Houston Center
12:31PM 32.3319 -93.4919 35° Northeast 404 465 41,000  Level Fort Worth Center
12:32PM 32.4297 -93.4139 34° Northeast 410 472 41,000  Level Fort Worth Center
12:33PM 32.5272 -93.3356 34° Northeast 417 480 41,000  Level Fort Worth Center
12:34PM 32.6269 -93.2522 35° Northeast 417 480 41,000  Level Fort Worth Center
12:35PM 32.7286 -93.1711 34° Northeast 428 493 41,000  Level Fort Worth Center
12:36PM 32.8322 -93.0894 34° Northeast 435 501 41,000  Level Fort Worth Center
12:37PM 32.9317 -93.0081 34° Northeast 435 501 41,000  Level Fort Worth Center
12:38PM 33.0350 -92.9236 34° Northeast 435 501 41,000  Level Fort Worth Center
12:40PM 33.1911 -92.7950 35° Northeast 453 521 41,000  Level Memphis Center
12:41PM 33.2847 -92.6981 41° Northeast 448 516 41,000  Level Memphis Center
12:42PM 33.3600 -92.5708 55° Northeast 453 521 41,000  Level Memphis Center
12:43PM 33.4353 -92.4408 55° Northeast 460 529 41,000  Level Memphis Center
12:44PM 33.5064 -92.3128 56° Northeast 466 536 41,000  Level Memphis Center
12:45PM 33.5833 -92.1825 55° Northeast 466 536 41,000 -350 Level Memphis Center
12:46PM 33.6603 -92.0567 54° Northeast 466 536 40,300 -1,300 Descending Memphis Center
12:47PM 33.7331 -91.9233 57° Northeast 466 536 38,400 -1,950 Descending Memphis Center
12:48PM 33.8097 -91.7922 55° Northeast 466 536 36,400 -1,950 Descending Memphis Center
12:49PM 33.8717 -91.6731 58° Northeast 466 536 34,500 -2,050 Descending Memphis Center
12:50PM 33.9481 -91.5492 53° Northeast 466 536 32,300 -2,550 Descending Memphis Center
12:51PM 34.0283 -91.4325 50° Northeast 454 522 29,400 -3,000 Descending Memphis Center
12:52PM 34.1192 -91.3106 48° Northeast 448 516 26,300 -3,050 Descending Memphis Center
12:53PM 34.2033 -91.1961 48° Northeast 448 516 23,300 -2,900 Descending Memphis Center
12:54PM 34.2833 -91.0811 50° Northeast 448 516 20,500 -2,750 Descending Memphis Center
12:55PM 34.3589 -90.9786 48° Northeast 427 491 17,800 -2,600 Descending Memphis Center
12:56PM 34.4283 -90.8833 49° Northeast 395 455 15,300 -2,350 Descending Memphis Center
12:57PM 34.4997 -90.7831 49° Northeast 381 438 13,100 -2,200 Descending Memphis Center
12:58PM 34.5667 -90.6875 50° Northeast 381 438 10,900 -1,550 Descending Memphis Center
12:59PM 34.6192 -90.6019 53° Northeast 356 410 10,000 -700 Descending Memphis Center
01:00PM 34.6506 -90.5111 67° East 300 345 9,500 -1,000 Descending Memphis Center
01:01PM 34.6797 -90.4328 66° East 287 330 8,000 -1,650 Descending Memphis Center
01:02PM 34.7153 -90.3494 63° Northeast 281 323 6,200 -1,350 Descending Memphis Center
01:03PM 34.7486 -90.2686 63° Northeast 269 310 5,300 -1,300 Descending Memphis Center
01:04PM 34.7797 -90.1878 65° Northeast 258 297 3,600 -1,150 Descending Memphis Center
01:05PM 34.8111 -90.1142 63° Northeast 252 290 3,000 -300 Descending Memphis Center
01:06PM 34.8422 -90.0408 63° Northeast 247 284 3,000  Level Memphis Center
01:07PM 34.8900 -89.9850 44° Northeast 221 254 3,000 -300 Level Memphis Center
01:08PM 34.9378 -89.9719 13° North 174 200 2,400 -800 Descending Memphis Center
01:09PM 34.9775 -89.9719 360° North 153 176 1,400 -900 Descending Memphis Center
01:10PM 35.0150 -89.9742 357° North 134 154 600 -450 Descending Memphis Center
01:11PM 35.0483 -89.9742 360° North 134 154 500 -100 Descending Memphis Center

Login

Don't have an account? Register now (free) for customized features, flight alerts, and more!